Orion Explorer — LNDT — position and weather

sailwx.info

Track history (hours):
 
Tides and Currents Weather Stations Pressure Air Temp Water Temp Dewpoint Dewpoint Depression Visibility Wind Speed Wind Dir Waves Ship Positions

Orion Explorer

Last reported at 2016-Apr-26 15:19 UTC. Time now 2016-Apr-30 08:58 UTC.
Position N 68°57' E 017°26'.

Length 59 m; draft 4.5 m.

Type: Cargo ship. MMSI: 259496000.

Date/timePositionNaut miles runAvg speedWind from/ knotsBaromVisibWave heightAir tempDewpointWater temp
2016-Apr-26 15:19N 68°57' E 017°26'4 4.9
2016-Apr-26 14:33N 69°01' E 017°27'6 6.1
2016-Apr-26 13:33N 69°06' E 017°36'3 2.8
2016-Apr-26 12:33N 69°09' E 017°39'5 4.5
2016-Apr-26 11:33N 69°05' E 017°31'0 0.0
2016-Apr-26 10:33N 69°05' E 017°31'3 0.1
2016-Apr-24 23:32N 69°05' E 017°24'1111.0
2016-Apr-24 22:33N 69°09' E 017°51'9 8.6
2016-Apr-24 21:33N 69°18' E 017°58'  
2016-Apr-20 02:18N 68°59' E 016°58'911.3
2016-Apr-20 01:32N 68°59' E 017°22'3 2.9
2016-Apr-20 00:33N 69°01' E 017°27'4 3.6
2016-Apr-19 23:33N 69°04' E 017°34'6 6.4
2016-Apr-19 22:33N 69°08' E 017°48'4 3.6
2016-Apr-19 21:33N 69°09' E 017°39'1 0.8
2016-Apr-19 20:33N 69°08' E 017°37'11 5.4
2016-Apr-19 18:28N 68°59' E 017°20'13 0.3
2016-Apr-17 16:16N 68°49' E 016°54'2011.3
2016-Apr-17 14:30N 69°06' E 017°26'1111.4
2016-Apr-17 13:33N 69°10' E 017°54'29 9.4
2016-Apr-17 10:25N 69°33' E 018°44'1011.4
2016-Apr-17 09:33N 69°41' E 019°02'1 1.3
2016-Apr-17 08:33N 69°42' E 019°04'  
Track history (hours):
 
Tides and Currents Weather Stations Pressure Air Temp Water Temp Dewpoint Dewpoint Depression Visibility Wind Speed Wind Dir Waves Ship Positions

Orion Explorer

Last reported at 2016-Apr-26 15:19 UTC. Time now 2016-Apr-30 08:58 UTC.
Position N 68°57' E 017°26'.

Length 59 m; draft 4.5 m.

Type: Cargo ship. MMSI: 259496000.

Date/timePositionNaut miles runAvg speedWind from/ knotsBaromVisibWave heightAir tempDewpointWater temp
2016-Apr-26 15:19N 68°57' E 017°26'4 4.9
2016-Apr-26 14:33N 69°01' E 017°27'6 6.1
2016-Apr-26 13:33N 69°06' E 017°36'3 2.8
2016-Apr-26 12:33N 69°09' E 017°39'5 4.5
2016-Apr-26 11:33N 69°05' E 017°31'0 0.0
2016-Apr-26 10:33N 69°05' E 017°31'3 0.1
2016-Apr-24 23:32N 69°05' E 017°24'1111.0
2016-Apr-24 22:33N 69°09' E 017°51'9 8.6
2016-Apr-24 21:33N 69°18' E 017°58'  
2016-Apr-20 02:18N 68°59' E 016°58'911.3
2016-Apr-20 01:32N 68°59' E 017°22'3 2.9
2016-Apr-20 00:33N 69°01' E 017°27'4 3.6
2016-Apr-19 23:33N 69°04' E 017°34'6 6.4
2016-Apr-19 22:33N 69°08' E 017°48'4 3.6
2016-Apr-19 21:33N 69°09' E 017°39'1 0.8
2016-Apr-19 20:33N 69°08' E 017°37'11 5.4
2016-Apr-19 18:28N 68°59' E 017°20'13 0.3
2016-Apr-17 16:16N 68°49' E 016°54'2011.3
2016-Apr-17 14:30N 69°06' E 017°26'1111.4
2016-Apr-17 13:33N 69°10' E 017°54'29 9.4
2016-Apr-17 10:25N 69°33' E 018°44'1011.4
2016-Apr-17 09:33N 69°41' E 019°02'1 1.3
2016-Apr-17 08:33N 69°42' E 019°04'  

Dump ship's entire track history